createdAt,value
2022-12-20T00:01:07.693Z,29.50
2022-12-20T00:03:35.394Z,30.00
2022-12-20T00:06:03.228Z,30.70
2022-12-20T00:08:31.561Z,30.60
2022-12-20T00:11:01.840Z,29.80
2022-12-20T00:13:29.503Z,29.50
2022-12-20T00:16:15.193Z,29.50
2022-12-20T00:18:44.090Z,29.70
2022-12-20T00:21:14.043Z,31.00
2022-12-20T00:23:41.886Z,31.30
2022-12-20T00:26:18.313Z,31.40
2022-12-20T00:28:46.939Z,31.40
2022-12-20T00:31:16.449Z,31.20
2022-12-20T00:33:49.611Z,31.00
2022-12-20T00:36:18.265Z,32.20
2022-12-20T00:38:48.304Z,32.40
2022-12-20T00:41:19.060Z,31.70
2022-12-20T00:43:47.345Z,30.40
2022-12-20T00:46:16.284Z,31.30
2022-12-20T00:48:44.164Z,31.40
2022-12-20T00:51:14.821Z,32.10
2022-12-20T00:53:42.697Z,31.20
2022-12-20T00:56:10.855Z,32.20
2022-12-20T00:58:40.325Z,30.60
2022-12-20T01:22:47.151Z,25.80
2022-12-20T01:25:15.634Z,32.90
2022-12-20T01:27:43.245Z,32.30
2022-12-20T01:30:11.921Z,33.40
2022-12-20T01:32:39.617Z,33.70
2022-12-20T01:35:07.454Z,32.70
2022-12-20T01:37:35.468Z,31.90
2022-12-20T01:40:03.617Z,34.10
2022-12-20T01:42:31.331Z,32.80
2022-12-20T01:44:59.599Z,32.30
2022-12-20T01:47:30.381Z,33.00
2022-12-20T01:49:59.042Z,32.40
2022-12-20T01:52:32.014Z,33.70
2022-12-20T01:55:07.605Z,32.10
2022-12-20T01:57:44.011Z,31.40
2022-12-20T02:00:12.754Z,31.00
2022-12-20T02:02:46.025Z,31.40
2022-12-20T02:05:14.730Z,31.50
2022-12-20T02:07:47.563Z,30.30
2022-12-20T02:10:17.346Z,30.70
2022-12-20T02:12:46.532Z,30.80
2022-12-20T02:15:43.189Z,31.20
2022-12-20T02:18:20.085Z,29.90
2022-12-20T02:20:57.084Z,30.80
2022-12-20T02:23:54.377Z,28.90
2022-12-20T02:26:45.813Z,30.30
2022-12-20T02:29:58.360Z,29.70
2022-12-20T02:32:32.889Z,29.90
2022-12-20T02:35:00.513Z,27.90
2022-12-20T02:37:28.152Z,29.80
2022-12-20T02:39:55.796Z,27.60
2022-12-20T02:42:25.595Z,29.10
2022-12-20T02:45:17.177Z,28.90
2022-12-20T02:47:54.100Z,28.80
2022-12-20T02:50:31.945Z,28.90
2022-12-20T02:53:00.187Z,29.30
2022-12-20T02:55:48.080Z,29.60
2022-12-20T02:58:28.542Z,31.20
2022-12-20T03:01:04.291Z,30.20
2022-12-20T03:03:34.322Z,30.40
2022-12-20T03:06:02.080Z,29.40
2022-12-20T03:08:31.044Z,29.60
2022-12-20T03:10:58.900Z,29.70
2022-12-20T03:13:26.966Z,28.60
2022-12-20T03:15:58.849Z,28.30
2022-12-20T03:18:27.292Z,30.00
2022-12-20T03:20:54.924Z,30.40
2022-12-20T03:23:22.602Z,31.30
2022-12-20T03:25:50.723Z,29.90
2022-12-20T03:28:27.225Z,29.90
2022-12-20T03:30:55.714Z,29.10
2022-12-20T03:33:23.612Z,30.00
2022-12-20T03:35:51.961Z,28.80
2022-12-20T03:38:19.887Z,29.80
2022-12-20T03:40:47.554Z,29.60
2022-12-20T03:43:17.762Z,29.80
2022-12-20T03:45:45.474Z,28.40
2022-12-20T03:48:13.386Z,30.10
2022-12-20T03:50:41.211Z,30.00
2022-12-20T03:53:09.188Z,30.80
2022-12-20T03:55:36.977Z,30.70
2022-12-20T03:58:04.670Z,29.60
2022-12-20T04:00:34.728Z,31.80
2022-12-20T04:03:18.083Z,28.40
2022-12-20T04:05:46.185Z,29.90
2022-12-20T04:08:14.102Z,28.40
2022-12-20T04:11:00.763Z,28.90
2022-12-20T04:13:32.460Z,29.70
2022-12-20T04:16:01.375Z,28.80
2022-12-20T04:18:32.117Z,28.70
2022-12-20T04:21:01.603Z,29.20
2022-12-20T04:23:30.923Z,28.90
2022-12-20T04:25:59.523Z,28.30
2022-12-20T04:31:24.388Z,27.70
2022-12-20T04:33:53.215Z,28.20
2022-12-20T04:36:22.272Z,28.10
2022-12-20T04:38:51.350Z,28.30
2022-12-20T04:41:22.464Z,28.20
2022-12-20T04:43:55.506Z,28.90
2022-12-20T04:46:25.716Z,28.10
2022-12-20T04:48:57.972Z,29.40
2022-12-20T04:51:28.095Z,28.60
2022-12-20T04:53:56.254Z,27.90
2022-12-20T04:56:29.687Z,27.60
2022-12-20T04:59:02.519Z,28.00
2022-12-20T05:01:31.157Z,27.30
2022-12-20T05:03:59.006Z,27.40
2022-12-20T05:06:27.599Z,27.60
2022-12-20T05:08:55.610Z,28.20
2022-12-20T05:11:23.615Z,28.70
2022-12-20T05:13:51.648Z,29.70
2022-12-20T05:16:20.793Z,28.40
2022-12-20T05:18:49.660Z,30.00
2022-12-20T05:21:37.174Z,28.70
2022-12-20T05:24:24.724Z,28.70
2022-12-20T05:26:57.850Z,27.50
2022-12-20T05:29:26.649Z,28.40
2022-12-20T05:31:54.931Z,28.60
2022-12-20T05:34:23.058Z,28.00
2022-12-20T05:36:53.936Z,29.30
2022-12-20T05:39:23.173Z,28.20
2022-12-20T05:41:53.705Z,29.50
2022-12-20T05:44:22.671Z,29.80
2022-12-20T05:46:53.079Z,29.40
2022-12-20T05:49:26.069Z,28.70
2022-12-20T05:51:54.459Z,29.50
2022-12-20T05:54:25.566Z,29.10
2022-12-20T05:57:01.265Z,28.20
2022-12-20T05:59:35.280Z,28.90
2022-12-20T06:02:03.825Z,28.60
2022-12-20T06:04:33.312Z,28.30
2022-12-20T06:07:05.415Z,30.00
2022-12-20T06:09:33.573Z,30.20
2022-12-20T06:12:06.320Z,31.00
2022-12-20T06:14:35.081Z,31.10
2022-12-20T06:17:02.991Z,32.10
2022-12-20T06:19:32.270Z,32.50
2022-12-20T06:22:01.195Z,32.00
2022-12-20T06:24:44.326Z,32.00
2022-12-20T06:27:16.067Z,32.70
2022-12-20T06:29:51.710Z,34.00
2022-12-20T06:32:22.208Z,32.60
2022-12-20T06:34:51.086Z,32.90
2022-12-20T06:37:18.694Z,33.10
2022-12-20T06:39:46.556Z,30.90
2022-12-20T06:42:15.200Z,34.70
2022-12-20T06:44:44.758Z,32.90
2022-12-20T06:47:12.639Z,33.10
2022-12-20T06:49:40.406Z,32.70
2022-12-20T06:52:16.239Z,35.00
2022-12-20T06:54:49.713Z,31.00
2022-12-20T06:57:17.314Z,32.90
2022-12-20T06:59:47.979Z,32.20
2022-12-20T07:02:15.920Z,31.70
2022-12-20T07:04:43.828Z,32.00
2022-12-20T07:07:13.284Z,33.30
2022-12-20T07:09:42.647Z,30.70
2022-12-20T07:12:10.769Z,32.10
2022-12-20T07:14:38.405Z,31.90
2022-12-20T07:17:07.602Z,32.90
2022-12-20T07:19:36.447Z,33.90
2022-12-20T07:22:05.623Z,33.00
2022-12-20T07:24:33.792Z,33.20
2022-12-20T07:27:01.760Z,32.90
2022-12-20T07:29:30.154Z,33.50
2022-12-20T07:31:57.834Z,32.90
2022-12-20T07:34:25.518Z,33.50
2022-12-20T07:36:53.717Z,34.60
2022-12-20T07:39:21.321Z,33.10
2022-12-20T07:41:48.974Z,35.80
2022-12-20T07:44:17.884Z,34.30
2022-12-20T07:46:45.594Z,34.80
2022-12-20T07:49:13.832Z,35.10
2022-12-20T07:51:44.801Z,35.00
2022-12-20T07:54:16.196Z,37.20
2022-12-20T07:56:47.256Z,36.30
2022-12-20T07:59:20.407Z,35.50
2022-12-20T08:01:48.944Z,35.80
2022-12-20T08:04:21.722Z,37.00
2022-12-20T08:06:50.571Z,35.90
2022-12-20T08:09:18.907Z,36.90
2022-12-20T08:11:48.763Z,39.30
2022-12-20T08:26:59.721Z,28.00
2022-12-20T08:29:27.494Z,35.60
2022-12-20T08:31:55.109Z,36.70
2022-12-20T08:34:22.741Z,36.10
2022-12-20T08:36:50.451Z,36.90
2022-12-20T08:39:18.207Z,37.00
2022-12-20T08:41:45.897Z,35.30
2022-12-20T08:44:13.647Z,37.70
2022-12-20T08:46:41.476Z,38.70
2022-12-20T08:49:09.110Z,38.00
2022-12-20T08:51:36.844Z,38.00
2022-12-20T08:54:04.583Z,37.10
2022-12-20T08:56:32.227Z,37.30
2022-12-20T08:58:59.917Z,36.20
2022-12-20T09:01:30.252Z,36.30
2022-12-20T09:03:58.070Z,36.80
2022-12-20T09:06:26.152Z,37.90
2022-12-20T09:08:55.686Z,37.90
2022-12-20T09:11:24.935Z,36.30
2022-12-20T09:13:54.975Z,36.70
2022-12-20T09:16:25.749Z,35.70
2022-12-20T09:19:00.685Z,37.10
2022-12-20T09:21:30.398Z,38.30
2022-12-20T09:23:58.073Z,38.90
2022-12-20T09:26:26.111Z,37.90
2022-12-20T09:28:54.148Z,40.80
2022-12-20T09:31:24.063Z,38.60
2022-12-20T09:33:55.941Z,40.30
2022-12-20T09:36:25.853Z,41.90
2022-12-20T09:38:54.349Z,41.90
2022-12-20T09:41:40.587Z,40.20
2022-12-20T09:44:26.606Z,40.70
2022-12-20T09:47:09.756Z,39.60
2022-12-20T09:49:43.149Z,39.10
2022-12-20T09:52:36.570Z,41.60
2022-12-20T09:55:30.748Z,41.70
2022-12-20T09:58:03.770Z,41.30
2022-12-20T10:00:36.708Z,42.50
2022-12-20T10:03:10.510Z,43.20
2022-12-20T10:05:59.491Z,42.80
2022-12-20T10:08:56.284Z,45.70
2022-12-20T10:11:50.505Z,40.00
2022-12-20T10:14:21.683Z,40.50
2022-12-20T10:16:54.624Z,41.50
2022-12-20T10:19:50.645Z,40.90
2022-12-20T10:22:23.703Z,43.80
2022-12-20T10:24:59.932Z,42.80
2022-12-20T10:27:27.624Z,38.50
2022-12-20T10:29:55.395Z,39.30
2022-12-20T10:32:24.258Z,39.10
2022-12-20T10:35:10.337Z,41.20
2022-12-20T10:37:41.299Z,40.60
2022-12-20T10:40:46.396Z,40.50
2022-12-20T10:43:20.824Z,39.00
2022-12-20T10:46:06.423Z,39.90
2022-12-20T10:48:42.371Z,39.40
2022-12-20T10:51:15.535Z,40.90
2022-12-20T10:54:04.213Z,40.60
2022-12-20T10:56:34.196Z,40.00
2022-12-20T10:59:24.247Z,39.40
2022-12-20T11:01:52.000Z,40.30
2022-12-20T11:04:34.892Z,40.60
2022-12-20T11:07:04.642Z,40.90
2022-12-20T11:09:37.424Z,40.10
2022-12-20T11:12:16.547Z,56.20
2022-12-20T11:14:46.399Z,42.20
2022-12-20T11:17:14.084Z,39.20
2022-12-20T11:19:56.399Z,40.40
2022-12-20T11:22:53.219Z,39.50
2022-12-20T11:25:55.548Z,38.90
2022-12-20T11:28:54.242Z,39.60
2022-12-20T11:31:50.245Z,40.90
2022-12-20T11:34:20.778Z,40.80
2022-12-20T11:37:20.460Z,40.20
2022-12-20T11:40:25.205Z,38.90
2022-12-20T11:43:11.660Z,39.10
2022-12-20T11:45:54.730Z,39.40
2022-12-20T11:49:03.670Z,39.40
2022-12-20T11:51:55.381Z,46.50
2022-12-20T11:54:34.774Z,49.10
2022-12-20T11:57:07.551Z,38.70
2022-12-20T11:59:45.379Z,38.70
2022-12-20T12:02:14.324Z,40.20
2022-12-20T12:04:55.620Z,37.90
2022-12-20T12:07:28.979Z,37.00
2022-12-20T12:10:18.670Z,38.50
2022-12-20T12:12:58.750Z,38.40
2022-12-20T12:15:47.541Z,39.80
2022-12-20T12:18:21.414Z,38.60
2022-12-20T12:20:49.531Z,39.10
2022-12-20T12:23:23.436Z,39.80
2022-12-20T12:25:51.584Z,39.50
2022-12-20T12:28:21.017Z,38.80
2022-12-20T12:30:54.196Z,40.40
2022-12-20T12:33:38.693Z,40.00
2022-12-20T12:36:32.782Z,39.00
2022-12-20T12:39:33.542Z,58.90
2022-12-20T12:42:12.559Z,55.40
2022-12-20T12:44:46.310Z,39.30
2022-12-20T12:47:23.774Z,40.90
2022-12-20T12:49:53.054Z,42.20
2022-12-20T12:52:42.044Z,41.00
2022-12-20T12:55:35.032Z,39.80
2022-12-20T12:58:24.565Z,39.50
2022-12-20T13:01:08.986Z,38.30
2022-12-20T13:04:10.381Z,39.50
2022-12-20T13:06:38.012Z,38.80
2022-12-20T13:09:06.154Z,38.40
2022-12-20T13:11:36.718Z,38.90
2022-12-20T13:14:22.958Z,39.30
2022-12-20T13:17:12.819Z,38.70
2022-12-20T13:20:01.744Z,38.20
2022-12-20T13:22:29.783Z,40.40
2022-12-20T13:25:03.071Z,41.40
2022-12-20T13:27:39.169Z,41.80
2022-12-20T13:30:07.063Z,43.30
2022-12-20T13:32:46.861Z,41.60
2022-12-20T13:35:27.925Z,40.60
2022-12-20T13:37:57.347Z,39.60
2022-12-20T13:40:59.685Z,39.70
2022-12-20T13:43:42.562Z,40.50
2022-12-20T13:46:10.368Z,41.70
2022-12-20T13:48:38.150Z,47.80
2022-12-20T13:51:07.841Z,42.80
2022-12-20T13:53:35.778Z,42.60
2022-12-20T13:56:28.853Z,44.30
2022-12-20T13:58:58.323Z,44.80
2022-12-20T14:01:26.898Z,45.50
2022-12-20T14:03:54.944Z,44.00
2022-12-20T14:06:26.978Z,42.80
2022-12-20T14:08:55.064Z,42.40
2022-12-20T14:11:27.067Z,41.30
2022-12-20T14:13:57.624Z,41.80
2022-12-20T14:16:27.533Z,41.70
2022-12-20T14:18:58.188Z,42.00
2022-12-20T14:21:26.005Z,40.90
2022-12-20T14:23:56.606Z,41.70
2022-12-20T14:26:37.121Z,43.30
2022-12-20T14:29:11.039Z,42.80
2022-12-20T14:31:41.968Z,42.30
2022-12-20T14:34:12.989Z,43.90
2022-12-20T14:36:47.401Z,42.00
2022-12-20T14:39:34.262Z,43.50
2022-12-20T14:42:22.407Z,41.40
2022-12-20T14:44:50.086Z,43.90
2022-12-20T14:47:26.055Z,44.20
2022-12-20T14:50:02.103Z,42.50
2022-12-20T14:52:32.787Z,43.60
2022-12-20T14:55:08.284Z,42.30
2022-12-20T14:57:36.968Z,43.10
2022-12-20T15:00:28.082Z,42.50
2022-12-20T15:02:55.879Z,44.80
2022-12-20T15:05:36.696Z,43.20
2022-12-20T15:08:11.590Z,44.10
2022-12-20T15:10:42.912Z,43.80
2022-12-20T15:13:13.736Z,44.10
2022-12-20T15:15:42.075Z,44.20
2022-12-20T15:18:18.084Z,42.40
2022-12-20T15:20:49.520Z,42.00
2022-12-20T15:23:20.028Z,42.70
2022-12-20T15:25:48.622Z,41.40
2022-12-20T15:28:21.936Z,44.60
2022-12-20T15:30:50.996Z,46.70
2022-12-20T15:33:22.009Z,45.40
2022-12-20T15:35:49.782Z,46.40
2022-12-20T15:38:34.608Z,47.00
2022-12-20T15:41:13.889Z,46.40
2022-12-20T15:43:41.567Z,45.80
2022-12-20T15:46:09.595Z,45.30
2022-12-20T15:48:37.239Z,45.30
2022-12-20T15:51:30.774Z,43.60
2022-12-20T15:54:00.346Z,43.80
2022-12-20T15:56:28.567Z,46.90
2022-12-20T15:58:56.908Z,43.10
2022-12-20T16:01:40.025Z,42.10
2022-12-20T16:04:14.988Z,43.80
2022-12-20T16:06:44.285Z,42.40
2022-12-20T16:09:12.483Z,41.70
2022-12-20T16:11:40.759Z,42.70
2022-12-20T16:14:17.535Z,41.50
2022-12-20T16:16:45.637Z,42.30
2022-12-20T16:19:13.398Z,43.60
2022-12-20T16:21:45.349Z,42.40
2022-12-20T16:24:15.048Z,43.40
2022-12-20T16:26:42.791Z,45.30
2022-12-20T16:29:10.596Z,42.80
2022-12-20T16:31:40.314Z,44.40
2022-12-20T16:34:16.539Z,44.40
2022-12-20T16:36:44.520Z,44.80
2022-12-20T16:39:12.318Z,43.40
2022-12-20T16:41:41.111Z,43.10
2022-12-20T16:44:13.347Z,42.80
2022-12-20T16:46:41.466Z,43.40
2022-12-20T16:49:15.010Z,41.70
2022-12-20T16:51:48.948Z,41.90
2022-12-20T16:54:22.404Z,42.60
2022-12-20T16:56:55.336Z,43.70
2022-12-20T16:59:24.308Z,43.90
2022-12-20T17:01:53.602Z,43.40
2022-12-20T17:04:21.879Z,41.90
2022-12-20T17:06:50.162Z,42.50
2022-12-20T17:12:18.857Z,42.20
2022-12-20T17:14:47.497Z,42.20
2022-12-20T17:17:15.633Z,42.60
2022-12-20T17:19:43.482Z,44.10
2022-12-20T17:24:58.188Z,43.30
2022-12-20T17:27:25.854Z,43.90
2022-12-20T17:29:53.747Z,43.30
2022-12-20T17:32:23.413Z,44.30
2022-12-20T17:34:51.392Z,43.90
2022-12-20T17:37:19.089Z,42.30
2022-12-20T17:39:46.939Z,42.90
2022-12-20T17:42:14.659Z,42.30
2022-12-20T17:44:42.543Z,43.90
2022-12-20T17:47:11.596Z,41.90
2022-12-20T17:49:39.701Z,42.30
2022-12-20T17:52:13.598Z,42.80
2022-12-20T17:54:41.535Z,42.60
2022-12-20T17:57:16.012Z,43.10
2022-12-20T17:59:44.360Z,43.00
2022-12-20T18:02:23.926Z,42.10
2022-12-20T18:04:53.424Z,42.10
2022-12-20T18:07:21.250Z,42.40
2022-12-20T18:09:49.194Z,42.00
2022-12-20T18:12:17.563Z,44.80
2022-12-20T18:14:48.443Z,42.80
2022-12-20T18:17:16.559Z,42.00
2022-12-20T18:19:45.535Z,43.90
2022-12-20T18:22:14.341Z,43.80
2022-12-20T18:24:42.042Z,42.90
2022-12-20T18:27:09.986Z,42.10
2022-12-20T18:29:37.642Z,43.20
2022-12-20T18:32:05.716Z,42.30
2022-12-20T18:34:33.594Z,40.10
2022-12-20T18:37:05.519Z,39.70
2022-12-20T18:39:33.516Z,40.10
2022-12-20T18:42:01.637Z,41.10
2022-12-20T18:44:29.426Z,41.20
2022-12-20T18:46:57.090Z,39.50
2022-12-20T18:49:25.081Z,40.20
2022-12-20T18:51:53.071Z,39.90
2022-12-20T18:54:20.825Z,39.20
2022-12-20T18:56:49.059Z,38.70
2022-12-20T18:59:17.004Z,40.30
2022-12-20T19:01:45.024Z,38.90
2022-12-20T19:04:13.351Z,38.00
2022-12-20T19:06:42.139Z,39.70
2022-12-20T19:09:13.236Z,39.40
2022-12-20T19:11:42.030Z,38.80
2022-12-20T19:14:11.513Z,39.50
2022-12-20T19:16:40.098Z,37.30
2022-12-20T19:19:08.883Z,38.70
2022-12-20T19:21:38.575Z,39.10
2022-12-20T19:24:07.905Z,38.70
2022-12-20T19:26:36.908Z,38.80
2022-12-20T19:29:05.826Z,39.30
2022-12-20T19:31:36.340Z,39.40
2022-12-20T19:34:07.624Z,39.30
2022-12-20T19:36:44.308Z,40.00
2022-12-20T19:39:20.794Z,38.90
2022-12-20T19:42:21.403Z,38.70
2022-12-20T19:44:37.717Z,38.90
2022-12-20T19:47:05.709Z,39.30
2022-12-20T19:49:35.439Z,39.10
2022-12-20T19:52:03.459Z,37.70
2022-12-20T19:54:31.484Z,38.60
2022-12-20T19:56:59.129Z,39.30
2022-12-20T19:59:26.896Z,40.30
2022-12-20T20:01:54.682Z,40.00
2022-12-20T20:04:23.881Z,39.30
2022-12-20T20:06:51.503Z,39.70
2022-12-20T20:09:19.140Z,39.80
2022-12-20T20:11:46.864Z,39.90
2022-12-20T20:14:14.530Z,38.80
2022-12-20T20:16:42.230Z,39.60
2022-12-20T20:19:10.044Z,38.40
2022-12-20T20:21:38.131Z,38.70
2022-12-20T20:24:06.275Z,38.00
2022-12-20T20:26:34.251Z,39.10
2022-12-20T20:29:03.084Z,37.70
2022-12-20T20:31:30.828Z,38.10
2022-12-20T20:33:58.714Z,37.40
2022-12-20T20:36:26.534Z,36.30
2022-12-20T20:38:54.211Z,36.40
2022-12-20T20:41:22.641Z,36.50
2022-12-20T20:43:50.339Z,34.30
2022-12-20T20:46:18.682Z,36.20
2022-12-20T20:48:46.539Z,35.90
2022-12-20T20:51:14.659Z,37.60
2022-12-20T20:53:42.399Z,36.80
2022-12-20T20:56:10.496Z,33.90
2022-12-20T20:58:38.582Z,35.80
2022-12-20T21:01:08.549Z,35.10
2022-12-20T21:03:37.507Z,36.70
2022-12-20T21:06:37.269Z,34.50
2022-12-20T21:08:54.695Z,35.30
2022-12-20T21:11:22.919Z,36.30
2022-12-20T21:13:50.881Z,35.90
2022-12-20T21:16:22.523Z,34.60
2022-12-20T21:18:54.678Z,34.20
2022-12-20T21:21:23.695Z,36.50
2022-12-20T21:23:54.541Z,35.30
2022-12-20T21:26:22.979Z,35.30
2022-12-20T21:28:51.803Z,37.00
2022-12-20T21:31:19.767Z,35.70
2022-12-20T21:33:47.554Z,34.90
2022-12-20T21:36:17.533Z,34.80
2022-12-20T21:38:50.247Z,33.50
2022-12-20T21:41:20.115Z,35.00
2022-12-20T21:43:47.920Z,33.80
2022-12-20T21:46:16.372Z,34.40
2022-12-20T21:48:44.776Z,34.30
2022-12-20T21:51:15.676Z,34.00
2022-12-20T21:53:48.441Z,33.60
2022-12-20T21:56:17.510Z,33.40
2022-12-20T21:58:45.830Z,33.10
2022-12-20T22:01:16.247Z,33.20
2022-12-20T22:03:44.482Z,34.10
2022-12-20T22:06:12.468Z,32.80
2022-12-20T22:08:40.199Z,33.00
2022-12-20T22:11:12.889Z,32.80
2022-12-20T22:13:42.233Z,34.00
2022-12-20T22:16:15.946Z,33.90
2022-12-20T22:18:44.555Z,34.80
2022-12-20T22:21:13.949Z,33.60
2022-12-20T22:23:42.070Z,34.30
2022-12-20T22:26:13.208Z,31.50
2022-12-20T22:28:49.483Z,32.40
2022-12-20T22:31:17.794Z,33.40
2022-12-20T22:33:45.560Z,32.40
2022-12-20T22:36:15.316Z,33.10
2022-12-20T22:38:43.423Z,32.70
2022-12-20T22:41:15.388Z,33.80
2022-12-20T22:43:44.911Z,33.20
2022-12-20T22:46:13.677Z,33.40
2022-12-20T22:48:41.702Z,34.30
2022-12-20T22:51:11.757Z,33.60
2022-12-20T22:53:40.306Z,32.80
2022-12-20T22:56:08.631Z,33.30
2022-12-20T22:58:37.104Z,33.50
2022-12-20T23:01:08.556Z,33.20
2022-12-20T23:03:37.317Z,33.40
2022-12-20T23:06:06.728Z,32.70
2022-12-20T23:08:36.400Z,32.20
2022-12-20T23:11:39.585Z,32.40
2022-12-20T23:14:30.314Z,35.20
2022-12-20T23:16:58.598Z,31.40
2022-12-20T23:19:27.018Z,32.80
2022-12-20T23:22:13.172Z,32.20
2022-12-20T23:24:40.836Z,31.70
2022-12-20T23:27:08.491Z,32.60
2022-12-20T23:29:36.124Z,31.80
2022-12-20T23:32:03.861Z,31.10
2022-12-20T23:34:31.740Z,30.70
2022-12-20T23:36:59.426Z,30.90
2022-12-20T23:39:27.082Z,31.90
2022-12-20T23:41:54.759Z,32.10
2022-12-20T23:44:22.534Z,30.10
2022-12-20T23:46:50.264Z,32.00
2022-12-20T23:49:18.001Z,32.50
2022-12-20T23:51:45.687Z,31.70
2022-12-20T23:54:13.402Z,33.70
2022-12-20T23:56:41.093Z,32.20
2022-12-20T23:59:08.812Z,31.70
